Time;durP1;ratioP1;P1;durP2;ratioP2;P2;SDS_P1;SDS_P2;PMS_P1;PMS_P2;Temp;Humidity;BMP_temperature;BMP_pressure;BME280_temperature;BME280_humidity;BME280_pressure;Samples;Min_cycle;Max_cycle;Signal;HPM_P1;HPM_P2
2023/12/24 00:00:32;;;;;;;3.25;1.35;;;;;;;;;;5066370;28;20746;-59
2023/12/24 00:02:58;;;;;;;8.10;1.52;;;;;;;;;;5064608;28;20142;-59
2023/12/24 00:05:26;;;;;;;5.75;1.40;;;;;;;;;;5064918;28;20126;-59
2023/12/24 00:07:53;;;;;;;5.10;2.13;;;;;;;;;;5066641;28;20084;-58
2023/12/24 00:10:19;;;;;;;6.70;2.00;;;;;;;;;;5066547;28;20075;-60
2023/12/24 00:12:46;;;;;;;4.65;1.60;;;;;;;;;;5066009;28;20119;-58
2023/12/24 00:15:12;;;;;;;5.78;1.45;;;;;;;;;;5065635;28;20049;-59
2023/12/24 00:17:38;;;;;;;10.68;1.48;;;;;;;;;;5064644;28;20668;-59
2023/12/24 00:20:06;;;;;;;4.47;1.50;;;;;;;;;;5065669;28;20115;-58
2023/12/24 00:22:32;;;;;;;8.15;1.77;;;;;;;;;;5065846;28;20144;-59
2023/12/24 00:24:59;;;;;;;6.95;1.50;;;;;;;;;;5064646;28;20665;-58
2023/12/24 00:27:25;;;;;;;7.70;1.63;;;;;;;;;;5064803;28;20358;-60
2023/12/24 00:29:52;;;;;;;8.15;1.77;;;;;;;;;;5065484;28;20467;-57
2023/12/24 00:32:19;;;;;;;9.55;1.90;;;;;;;;;;5066141;28;20052;-58
2023/12/24 00:34:46;;;;;;;4.93;1.30;;;;;;;;;;5064638;28;20053;-59
2023/12/24 00:37:12;;;;;;;5.15;1.65;;;;;;;;;;5065540;28;20554;-58
2023/12/24 00:39:38;;;;;;;7.80;1.90;;;;;;;;;;5065263;28;20053;-60
2023/12/24 00:42:05;;;;;;;8.25;1.70;;;;;;;;;;5065409;28;20103;-59
2023/12/24 00:44:31;;;;;;;7.32;1.58;;;;;;;;;;5065079;28;20064;-59
2023/12/24 00:46:58;;;;;;;9.75;1.75;;;;;;;;;;5065501;28;20156;-58
2023/12/24 00:49:25;;;;;;;13.27;3.00;;;;;;;;;;5064851;28;20132;-58
2023/12/24 00:51:53;;;;;;;4.72;1.90;;;;;;;;;;5065615;28;20057;-58
2023/12/24 00:54:20;;;;;;;6.18;1.52;;;;;;;;;;5065438;28;20063;-59
2023/12/24 00:56:47;;;;;;;5.65;1.73;;;;;;;;;;5064836;28;20053;-59
2023/12/24 00:59:13;;;;;;;6.38;2.17;;;;;;;;;;5065123;28;20134;-59
2023/12/24 01:01:40;;;;;;;9.80;1.67;;;;;;;;;;5064555;28;20060;-60
2023/12/24 01:04:06;;;;;;;8.60;1.50;;;;;;;;;;5065001;28;20053;-58
2023/12/24 01:06:32;;;;;;;9.85;1.98;;;;;;;;;;5065144;28;20057;-59
2023/12/24 01:08:59;;;;;;;12.25;2.55;;;;;;;;;;5064985;28;20485;-58
2023/12/24 01:11:25;;;;;;;6.43;1.83;;;;;;;;;;5064255;28;20060;-58
2023/12/24 01:13:52;;;;;;;10.40;1.75;;;;;;;;;;5065328;28;20081;-58
2023/12/24 01:16:18;;;;;;;6.53;1.50;;;;;;;;;;5065610;28;20148;-59
2023/12/24 01:18:46;;;;;;;7.03;1.63;;;;;;;;;;5063298;28;20107;-59
2023/12/24 01:21:12;;;;;;;11.18;1.67;;;;;;;;;;5064378;28;20143;-59
2023/12/24 01:23:39;;;;;;;5.57;1.52;;;;;;;;;;5063856;28;20056;-59
2023/12/24 01:26:05;;;;;;;5.95;1.65;;;;;;;;;;5064732;28;20279;-59
2023/12/24 01:28:32;;;;;;;8.25;1.98;;;;;;;;;;5064724;28;20068;-60
2023/12/24 01:30:58;;;;;;;10.95;1.63;;;;;;;;;;5064792;28;20045;-59
2023/12/24 01:33:25;;;;;;;7.05;1.85;;;;;;;;;;5063638;28;20081;-60
2023/12/24 01:35:51;;;;;;;6.53;1.50;;;;;;;;;;5065310;28;20045;-59
2023/12/24 01:38:18;;;;;;;13.25;2.17;;;;;;;;;;5064506;28;20142;-59
2023/12/24 01:40:46;;;;;;;7.60;2.08;;;;;;;;;;5064079;28;20045;-59
2023/12/24 01:43:12;;;;;;;13.60;2.78;;;;;;;;;;5064431;28;20978;-59
2023/12/24 01:45:38;;;;;;;10.40;2.45;;;;;;;;;;5063906;28;20128;-60
2023/12/24 01:48:05;;;;;;;11.00;2.28;;;;;;;;;;5063754;28;20527;-60
2023/12/24 01:50:32;;;;;;;9.65;2.35;;;;;;;;;;5063835;28;20061;-60
2023/12/24 01:52:59;;;;;;;9.57;2.85;;;;;;;;;;5064221;28;20077;-60
2023/12/24 01:55:25;;;;;;;15.50;2.15;;;;;;;;;;5064085;28;20103;-59
2023/12/24 01:57:52;;;;;;;12.52;2.65;;;;;;;;;;5064916;28;20107;-60
2023/12/24 02:00:19;;;;;;;13.05;2.40;;;;;;;;;;5063917;28;20599;-60
2023/12/24 02:02:48;;;;;;;9.55;2.25;;;;;;;;;;5063409;28;20048;-60
2023/12/24 02:05:14;;;;;;;7.07;1.90;;;;;;;;;;5064571;28;20053;-59
2023/12/24 02:07:41;;;;;;;8.85;2.20;;;;;;;;;;5063526;28;20049;-59
2023/12/24 02:10:07;;;;;;;15.65;2.75;;;;;;;;;;5064265;28;20053;-61
2023/12/24 02:12:34;;;;;;;11.18;2.75;;;;;;;;;;5064045;28;20060;-60
2023/12/24 02:15:01;;;;;;;11.90;2.33;;;;;;;;;;5064213;28;20057;-60
2023/12/24 02:17:28;;;;;;;11.82;3.63;;;;;;;;;;5063164;28;20053;-59
2023/12/24 02:19:55;;;;;;;16.05;2.83;;;;;;;;;;5063528;28;20061;-60
2023/12/24 02:22:22;;;;;;;11.45;2.08;;;;;;;;;;5063729;28;20053;-60
2023/12/24 02:24:48;;;;;;;11.00;2.13;;;;;;;;;;5063972;28;20206;-59
2023/12/24 02:27:21;;;;;;;8.70;2.22;;;;;;;;;;5063198;28;20057;-60
2023/12/24 02:29:50;;;;;;;8.00;2.17;;;;;;;;;;5063343;28;20067;-60
2023/12/24 02:32:17;;;;;;;7.43;2.20;;;;;;;;;;5062929;28;20057;-59
2023/12/24 02:34:45;;;;;;;10.35;2.55;;;;;;;;;;5063209;28;20049;-60
2023/12/24 02:37:12;;;;;;;5.63;2.38;;;;;;;;;;5063966;28;20118;-60
2023/12/24 02:39:39;;;;;;;12.75;2.50;;;;;;;;;;5063076;28;20060;-60
2023/12/24 02:42:06;;;;;;;11.15;2.83;;;;;;;;;;5063918;28;20044;-60
2023/12/24 02:44:33;;;;;;;16.27;3.78;;;;;;;;;;5063353;28;20061;-59
2023/12/24 02:46:59;;;;;;;11.88;2.78;;;;;;;;;;5062375;28;20053;-59
2023/12/24 02:49:26;;;;;;;8.95;2.10;;;;;;;;;;5062134;28;20176;-59
2023/12/24 02:51:52;;;;;;;10.95;2.28;;;;;;;;;;5063773;28;20063;-58
2023/12/24 02:54:19;;;;;;;8.75;2.20;;;;;;;;;;5063391;28;20474;-59
2023/12/24 02:56:45;;;;;;;12.07;2.13;;;;;;;;;;5062307;28;20418;-60
2023/12/24 02:59:12;;;;;;;10.25;2.08;;;;;;;;;;5063397;28;20503;-60
2023/12/24 03:01:38;;;;;;;12.73;2.08;;;;;;;;;;5062560;28;20483;-58
2023/12/24 03:04:04;;;;;;;8.80;1.98;;;;;;;;;;5064075;28;20558;-58
2023/12/24 03:06:32;;;;;;;9.07;1.77;;;;;;;;;;5062874;28;20674;-58
2023/12/24 03:08:59;;;;;;;5.72;1.70;;;;;;;;;;5062931;28;20076;-59
2023/12/24 03:11:25;;;;;;;6.15;1.40;;;;;;;;;;5063021;28;20140;-59
2023/12/24 03:13:52;;;;;;;5.85;1.40;;;;;;;;;;5062903;28;20614;-57
2023/12/24 03:16:19;;;;;;;5.32;1.60;;;;;;;;;;5063139;28;20525;-60
2023/12/24 03:18:45;;;;;;;5.15;1.60;;;;;;;;;;5062592;28;20532;-59
2023/12/24 03:21:12;;;;;;;10.10;2.42;;;;;;;;;;5062940;28;20529;-59
2023/12/24 03:23:38;;;;;;;4.60;1.30;;;;;;;;;;5062135;28;20057;-59
2023/12/24 03:26:04;;;;;;;1.80;1.15;;;;;;;;;;5063301;28;20535;-59
2023/12/24 03:28:31;;;;;;;4.57;1.20;;;;;;;;;;5062782;28;20065;-60
2023/12/24 03:30:57;;;;;;;3.08;0.80;;;;;;;;;;5062453;28;20085;-60
2023/12/24 03:33:24;;;;;;;5.38;1.23;;;;;;;;;;5061476;28;20049;-59
2023/12/24 03:35:50;;;;;;;4.10;1.00;;;;;;;;;;5062979;28;20056;-60
2023/12/24 03:38:18;;;;;;;2.40;0.93;;;;;;;;;;5062961;28;20140;-57
2023/12/24 03:40:44;;;;;;;4.43;1.05;;;;;;;;;;5062278;28;20049;-57
2023/12/24 03:43:10;;;;;;;2.28;0.85;;;;;;;;;;5062098;28;20455;-60
2023/12/24 03:45:37;;;;;;;1.85;0.88;;;;;;;;;;5062483;28;20061;-59
2023/12/24 03:48:04;;;;;;;0.77;0.70;;;;;;;;;;5062893;28;20112;-58
2023/12/24 03:50:31;;;;;;;2.00;0.60;;;;;;;;;;5062709;28;20049;-59
2023/12/24 03:52:57;;;;;;;1.75;0.52;;;;;;;;;;5062338;28;20554;-60
2023/12/24 03:55:26;;;;;;;4.93;1.00;;;;;;;;;;5062156;28;20115;-59
2023/12/24 03:57:53;;;;;;;0.73;0.70;;;;;;;;;;5062306;28;20123;-58
2023/12/24 04:00:20;;;;;;;1.88;0.60;;;;;;;;;;5064511;28;20940;-59
2023/12/24 04:02:47;;;;;;;1.52;1.13;;;;;;;;;;5066195;28;20471;-60
2023/12/24 04:05:14;;;;;;;1.50;0.40;;;;;;;;;;5065865;28;20494;-59
2023/12/24 04:07:41;;;;;;;0.98;0.70;;;;;;;;;;5065761;28;20073;-59
2023/12/24 04:10:07;;;;;;;0.52;0.52;;;;;;;;;;5065796;28;20055;-57
2023/12/24 04:12:35;;;;;;;1.08;0.45;;;;;;;;;;5064838;28;20721;-60
2023/12/24 04:15:01;;;;;;;2.88;0.57;;;;;;;;;;5066032;28;20053;-60
2023/12/24 04:17:28;;;;;;;2.45;0.60;;;;;;;;;;5065118;28;20131;-60
2023/12/24 04:19:54;;;;;;;3.05;0.60;;;;;;;;;;5065352;28;20110;-59
2023/12/24 04:22:21;;;;;;;2.10;0.77;;;;;;;;;;5066374;28;20053;-60
2023/12/24 04:24:47;;;;;;;0.73;0.43;;;;;;;;;;5065289;28;20056;-60
2023/12/24 04:27:13;;;;;;;4.28;1.00;;;;;;;;;;5064861;28;20166;-60
2023/12/24 04:29:40;;;;;;;5.65;0.75;;;;;;;;;;5065433;28;20053;-59
2023/12/24 04:32:06;;;;;;;0.77;0.40;;;;;;;;;;5065668;28;20049;-59
2023/12/24 04:34:32;;;;;;;1.90;1.05;;;;;;;;;;5065262;28;20139;-60
2023/12/24 04:36:59;;;;;;;1.13;0.60;;;;;;;;;;5064185;28;20064;-59
2023/12/24 04:39:25;;;;;;;2.33;0.80;;;;;;;;;;5065373;28;20077;-59
2023/12/24 04:41:51;;;;;;;3.03;0.57;;;;;;;;;;5064815;28;20144;-60
2023/12/24 04:44:18;;;;;;;2.97;1.08;;;;;;;;;;5065360;28;20088;-59
2023/12/24 04:46:45;;;;;;;2.22;0.88;;;;;;;;;;5064783;28;20490;-60
2023/12/24 04:49:11;;;;;;;2.40;0.80;;;;;;;;;;5064729;28;20053;-59
2023/12/24 04:51:38;;;;;;;3.38;0.60;;;;;;;;;;5065295;28;20057;-58
2023/12/24 04:54:04;;;;;;;1.83;0.70;;;;;;;;;;5064547;28;20497;-59
2023/12/24 04:56:32;;;;;;;3.42;0.65;;;;;;;;;;5064318;28;20069;-59
2023/12/24 04:58:58;;;;;;;4.03;0.88;;;;;;;;;;5064799;28;20049;-60
2023/12/24 05:01:25;;;;;;;2.83;1.05;;;;;;;;;;5064416;28;20049;-60
2023/12/24 05:03:52;;;;;;;5.53;1.92;;;;;;;;;;5065672;28;20048;-59
2023/12/24 05:06:18;;;;;;;2.28;0.95;;;;;;;;;;5064813;28;20060;-60
2023/12/24 05:08:45;;;;;;;3.75;1.10;;;;;;;;;;5064058;28;20502;-60
2023/12/24 05:11:11;;;;;;;3.05;1.10;;;;;;;;;;5063872;28;20444;-60
2023/12/24 05:13:38;;;;;;;1.98;1.00;;;;;;;;;;5064778;28;20049;-59
2023/12/24 05:16:05;;;;;;;1.73;0.90;;;;;;;;;;5064977;28;20916;-60
2023/12/24 05:18:35;;;;;;;4.78;1.00;;;;;;;;;;5064820;28;20049;-59
2023/12/24 05:21:02;;;;;;;2.10;1.40;;;;;;;;;;5065233;28;20063;-59
2023/12/24 05:23:29;;;;;;;3.20;0.90;;;;;;;;;;5064546;28;20053;-59
2023/12/24 05:25:55;;;;;;;3.65;1.23;;;;;;;;;;5064394;28;20059;-60
2023/12/24 05:28:22;;;;;;;4.10;1.20;;;;;;;;;;5064656;28;20053;-58
2023/12/24 05:30:48;;;;;;;4.00;1.40;;;;;;;;;;5064649;28;20508;-60
2023/12/24 05:33:15;;;;;;;3.20;1.30;;;;;;;;;;5065102;28;20506;-59
2023/12/24 05:35:42;;;;;;;4.15;1.40;;;;;;;;;;5064134;28;20083;-60
2023/12/24 05:38:09;;;;;;;4.50;1.75;;;;;;;;;;5064268;28;20132;-59
2023/12/24 05:40:35;;;;;;;7.10;2.10;;;;;;;;;;5063463;28;20421;-59
2023/12/24 05:43:01;;;;;;;2.92;1.40;;;;;;;;;;5064821;28;20057;-60
2023/12/24 05:45:28;;;;;;;4.60;1.77;;;;;;;;;;5063740;28;20111;-60
2023/12/24 05:47:55;;;;;;;5.68;1.90;;;;;;;;;;5064240;28;20560;-61
2023/12/24 05:50:22;;;;;;;8.82;2.88;;;;;;;;;;5064475;28;20597;-60
2023/12/24 05:52:52;;;;;;;6.30;1.90;;;;;;;;;;5064161;28;20913;-60
2023/12/24 05:55:20;;;;;;;9.38;2.70;;;;;;;;;;5064527;28;20053;-60
2023/12/24 05:57:46;;;;;;;8.13;2.42;;;;;;;;;;5064215;28;20077;-60
2023/12/24 06:00:13;;;;;;;8.45;2.65;;;;;;;;;;5064201;28;20507;-58
2023/12/24 06:02:39;;;;;;;12.40;2.60;;;;;;;;;;5063843;28;20053;-60
2023/12/24 06:05:06;;;;;;;10.98;3.35;;;;;;;;;;5062837;28;20049;-57
2023/12/24 06:07:33;;;;;;;14.88;3.05;;;;;;;;;;5058816;28;20060;-58
2023/12/24 06:09:59;;;;;;;8.07;2.65;;;;;;;;;;5062082;28;20097;-60
2023/12/24 06:12:25;;;;;;;5.72;2.13;;;;;;;;;;5059872;28;20053;-59
2023/12/24 06:14:52;;;;;;;9.38;2.47;;;;;;;;;;5063565;28;20045;-57
2023/12/24 06:17:18;;;;;;;9.65;2.20;;;;;;;;;;5064412;28;20061;-59
2023/12/24 06:19:44;;;;;;;9.93;2.90;;;;;;;;;;5062204;28;20049;-60
2023/12/24 06:22:11;;;;;;;9.05;2.35;;;;;;;;;;5063928;28;20503;-57
2023/12/24 06:24:37;;;;;;;6.85;2.55;;;;;;;;;;5061471;28;20059;-59
2023/12/24 06:27:04;;;;;;;5.05;2.25;;;;;;;;;;5063713;28;20549;-59
2023/12/24 06:29:30;;;;;;;10.25;2.50;;;;;;;;;;5063495;28;20068;-60
2023/12/24 06:31:57;;;;;;;10.68;3.10;;;;;;;;;;5063452;28;20048;-60
2023/12/24 06:34:23;;;;;;;11.43;2.53;;;;;;;;;;5063561;28;20104;-59
2023/12/24 06:36:49;;;;;;;7.57;2.70;;;;;;;;;;5063012;28;20136;-59
2023/12/24 06:39:16;;;;;;;10.82;2.50;;;;;;;;;;5061068;28;20041;-59
2023/12/24 06:41:45;;;;;;;6.63;2.30;;;;;;;;;;5048589;28;20081;-61
2023/12/24 06:44:11;;;;;;;11.05;3.03;;;;;;;;;;5063172;28;20124;-60
2023/12/24 06:46:38;;;;;;;8.50;2.55;;;;;;;;;;5063398;28;20211;-57
2023/12/24 06:49:04;;;;;;;15.52;3.95;;;;;;;;;;5063607;28;20158;-60
2023/12/24 06:51:31;;;;;;;10.95;3.30;;;;;;;;;;5063082;28;20057;-59
2023/12/24 06:53:57;;;;;;;8.63;3.03;;;;;;;;;;5062847;28;20095;-58
2023/12/24 06:56:24;;;;;;;10.30;3.50;;;;;;;;;;5063156;28;20053;-59
2023/12/24 06:58:50;;;;;;;18.38;4.00;;;;;;;;;;5062533;28;20321;-59
2023/12/24 07:01:16;;;;;;;13.45;4.43;;;;;;;;;;5057676;28;20132;-60
2023/12/24 07:03:43;;;;;;;16.90;5.40;;;;;;;;;;5046526;28;20531;-60
2023/12/24 07:06:09;;;;;;;16.05;4.30;;;;;;;;;;5049023;28;20885;-59
2023/12/24 07:08:36;;;;;;;19.73;4.47;;;;;;;;;;5062702;28;20049;-57
2023/12/24 07:11:02;;;;;;;20.42;4.53;;;;;;;;;;5063528;28;20049;-60
2023/12/24 07:13:29;;;;;;;19.73;4.88;;;;;;;;;;5050455;28;20057;-59
2023/12/24 07:15:55;;;;;;;14.75;4.55;;;;;;;;;;5059014;28;20063;-59
2023/12/24 07:18:22;;;;;;;17.95;4.55;;;;;;;;;;5063230;28;20045;-59
2023/12/24 07:20:48;;;;;;;15.13;4.18;;;;;;;;;;5062552;28;20057;-59
2023/12/24 07:23:15;;;;;;;15.63;5.15;;;;;;;;;;5062140;28;20057;-59
2023/12/24 07:25:41;;;;;;;15.30;4.53;;;;;;;;;;5062878;28;20454;-60
2023/12/24 07:28:08;;;;;;;19.05;5.05;;;;;;;;;;5063202;28;20187;-60
2023/12/24 07:30:34;;;;;;;11.63;4.75;;;;;;;;;;5061982;28;20060;-59
2023/12/24 07:33:00;;;;;;;18.50;4.15;;;;;;;;;;5060299;28;20049;-59
2023/12/24 07:35:27;;;;;;;20.00;5.15;;;;;;;;;;5064168;28;20053;-59
2023/12/24 07:37:53;;;;;;;17.27;4.53;;;;;;;;;;5066406;28;20049;-59
2023/12/24 07:40:20;;;;;;;26.70;5.68;;;;;;;;;;5066757;28;20523;-59
2023/12/24 07:42:46;;;;;;;27.48;5.38;;;;;;;;;;5056401;28;20056;-59
2023/12/24 07:45:13;;;;;;;20.23;5.03;;;;;;;;;;5045795;28;20986;-58
2023/12/24 07:47:39;;;;;;;18.95;5.63;;;;;;;;;;5046226;28;20057;-59
2023/12/24 07:50:07;;;;;;;13.70;4.50;;;;;;;;;;5045520;28;20050;-57
2023/12/24 07:52:33;;;;;;;20.15;5.07;;;;;;;;;;5046194;28;20084;-59
2023/12/24 07:55:00;;;;;;;16.42;6.20;;;;;;;;;;5055560;28;20078;-59
2023/12/24 07:57:26;;;;;;;15.15;5.82;;;;;;;;;;5065683;28;20057;-59
2023/12/24 07:59:53;;;;;;;12.25;4.82;;;;;;;;;;5064467;28;20057;-60
2023/12/24 08:02:19;;;;;;;23.55;5.78;;;;;;;;;;5066288;28;20585;-59
2023/12/24 08:04:45;;;;;;;24.20;7.25;;;;;;;;;;5065612;28;20075;-59
2023/12/24 08:07:12;;;;;;;22.27;6.28;;;;;;;;;;5065508;28;20053;-59
2023/12/24 08:09:39;;;;;;;14.73;5.70;;;;;;;;;;5057608;28;20534;-59
2023/12/24 08:12:05;;;;;;;25.35;5.40;;;;;;;;;;5056842;28;20053;-59
2023/12/24 08:14:32;;;;;;;18.58;5.07;;;;;;;;;;5065129;28;20056;-59
2023/12/24 08:16:58;;;;;;;17.88;4.80;;;;;;;;;;5065986;28;20356;-59
2023/12/24 08:19:25;;;;;;;19.90;5.88;;;;;;;;;;5064534;28;20052;-60
2023/12/24 08:21:51;;;;;;;12.55;4.18;;;;;;;;;;5065905;28;20049;-60
2023/12/24 08:24:18;;;;;;;17.25;4.32;;;;;;;;;;5045882;28;20057;-59
2023/12/24 08:26:45;;;;;;;17.75;4.32;;;;;;;;;;5082823;28;20517;-59
2023/12/24 08:29:11;;;;;;;15.25;4.32;;;;;;;;;;5076716;28;20049;-59
2023/12/24 08:31:37;;;;;;;13.13;3.53;;;;;;;;;;5062650;28;20102;-59
2023/12/24 08:34:04;;;;;;;9.63;3.65;;;;;;;;;;5046006;28;20058;-58
2023/12/24 08:36:30;;;;;;;14.85;4.28;;;;;;;;;;5051724;28;20077;-58
2023/12/24 08:38:56;;;;;;;16.70;5.28;;;;;;;;;;5064664;28;20056;-58
2023/12/24 08:41:23;;;;;;;16.15;3.90;;;;;;;;;;5064815;28;20064;-59
2023/12/24 08:43:50;;;;;;;12.73;4.47;;;;;;;;;;5064010;28;20447;-58
2023/12/24 08:46:16;;;;;;;11.90;3.70;;;;;;;;;;5064766;28;20132;-59
2023/12/24 08:48:43;;;;;;;7.68;3.92;;;;;;;;;;5065151;28;20562;-57
2023/12/24 08:51:09;;;;;;;10.77;3.30;;;;;;;;;;5055173;28;20401;-59
2023/12/24 08:53:36;;;;;;;14.52;3.83;;;;;;;;;;5044483;28;20131;-59
2023/12/24 08:56:03;;;;;;;12.68;4.22;;;;;;;;;;5045104;28;20053;-59
2023/12/24 08:58:29;;;;;;;7.68;3.92;;;;;;;;;;5048057;28;20145;-59
2023/12/24 09:00:55;;;;;;;13.63;3.38;;;;;;;;;;5065153;28;20597;-59
2023/12/24 09:03:22;;;;;;;10.25;3.28;;;;;;;;;;5064552;28;20057;-59
2023/12/24 09:05:49;;;;;;;8.57;3.35;;;;;;;;;;5065269;28;20049;-59
2023/12/24 09:08:16;;;;;;;8.40;3.67;;;;;;;;;;5064411;28;20057;-58
2023/12/24 09:10:42;;;;;;;10.10;3.63;;;;;;;;;;5063826;28;20053;-59
2023/12/24 09:13:09;;;;;;;10.90;4.10;;;;;;;;;;5064863;28;20134;-59
2023/12/24 09:15:35;;;;;;;10.35;4.45;;;;;;;;;;5064899;28;20080;-60
2023/12/24 09:18:02;;;;;;;12.65;4.45;;;;;;;;;;5064824;28;20057;-60
2023/12/24 09:20:28;;;;;;;16.52;4.25;;;;;;;;;;5063269;28;20928;-59
2023/12/24 09:22:55;;;;;;;9.10;4.40;;;;;;;;;;5064284;28;20048;-58
2023/12/24 09:25:21;;;;;;;19.77;4.93;;;;;;;;;;5064951;28;20060;-59
2023/12/24 09:27:48;;;;;;;15.73;4.68;;;;;;;;;;5064740;28;20068;-59
2023/12/24 09:30:14;;;;;;;13.20;4.68;;;;;;;;;;5048863;28;20548;-59
2023/12/24 09:32:43;;;;;;;14.45;3.90;;;;;;;;;;5057908;28;20057;-59
2023/12/24 09:35:10;;;;;;;10.20;4.03;;;;;;;;;;5057755;28;20894;-59
2023/12/24 09:37:36;;;;;;;11.68;4.40;;;;;;;;;;5043708;28;20053;-58
2023/12/24 09:40:03;;;;;;;14.73;3.97;;;;;;;;;;5058713;28;20056;-59
2023/12/24 09:42:29;;;;;;;13.32;4.28;;;;;;;;;;5063723;28;20397;-58
2023/12/24 09:44:56;;;;;;;18.17;4.85;;;;;;;;;;5059299;28;20426;-59
2023/12/24 09:47:23;;;;;;;18.20;3.78;;;;;;;;;;5049261;28;20076;-59
2023/12/24 09:49:49;;;;;;;15.45;5.07;;;;;;;;;;5059183;28;20045;-59
2023/12/24 09:52:16;;;;;;;18.30;5.35;;;;;;;;;;5061798;28;20053;-58
2023/12/24 09:54:42;;;;;;;23.08;6.38;;;;;;;;;;5061429;28;20053;-59
2023/12/24 09:57:09;;;;;;;21.30;6.00;;;;;;;;;;5058709;28;20495;-58
2023/12/24 09:59:35;;;;;;;22.67;6.20;;;;;;;;;;5063095;28;20562;-59
2023/12/24 10:02:02;;;;;;;23.75;6.50;;;;;;;;;;5057564;28;20053;-57
2023/12/24 10:04:28;;;;;;;28.90;7.25;;;;;;;;;;5046766;28;20239;-57
2023/12/24 10:06:56;;;;;;;23.08;6.47;;;;;;;;;;5047352;28;20057;-59
2023/12/24 10:09:23;;;;;;;23.38;7.25;;;;;;;;;;5064464;28;20045;-58
2023/12/24 10:12:03;;;;;;;33.58;7.85;;;;;;;;;;5063905;28;20057;-59
2023/12/24 10:14:30;;;;;;;30.77;7.35;;;;;;;;;;5055019;28;20523;-59
2023/12/24 10:16:59;;;;;;;31.40;6.75;;;;;;;;;;5043614;28;20061;-57
2023/12/24 10:19:27;;;;;;;27.95;7.07;;;;;;;;;;5044211;28;20111;-58
2023/12/24 10:21:59;;;;;;;28.35;6.43;;;;;;;;;;5044070;28;20050;-57
2023/12/24 10:24:29;;;;;;;34.80;7.32;;;;;;;;;;5044048;28;20350;-56
2023/12/24 10:27:02;;;;;;;35.63;6.65;;;;;;;;;;5043887;28;20617;-58
2023/12/24 10:29:29;;;;;;;22.65;6.13;;;;;;;;;;5043540;28;20401;-59
2023/12/24 10:31:55;;;;;;;38.55;6.70;;;;;;;;;;5063555;28;20099;-59
2023/12/24 10:34:22;;;;;;;20.10;5.85;;;;;;;;;;5063784;28;20056;-59
2023/12/24 10:36:49;;;;;;;37.20;6.40;;;;;;;;;;5064061;28;20053;-59
2023/12/24 10:39:18;;;;;;;32.65;6.75;;;;;;;;;;5063638;28;20123;-59
2023/12/24 10:41:46;;;;;;;33.75;6.72;;;;;;;;;;5063387;28;20055;-59
2023/12/24 10:44:13;;;;;;;29.27;5.85;;;;;;;;;;5062879;28;20057;-59
2023/12/24 10:46:39;;;;;;;20.60;4.50;;;;;;;;;;5063013;28;20057;-59
2023/12/24 10:49:05;;;;;;;30.40;6.57;;;;;;;;;;5063259;28;20103;-59
2023/12/24 10:51:33;;;;;;;31.10;5.78;;;;;;;;;;5063330;28;20052;-59
2023/12/24 10:54:00;;;;;;;25.70;5.65;;;;;;;;;;5063415;28;20068;-58
2023/12/24 10:56:31;;;;;;;24.67;5.53;;;;;;;;;;5062878;28;20102;-59
2023/12/24 10:59:00;;;;;;;24.00;5.03;;;;;;;;;;5061853;28;20056;-57
2023/12/24 11:01:27;;;;;;;29.10;5.10;;;;;;;;;;5060321;28;20052;-59
2023/12/24 11:03:53;;;;;;;27.95;5.82;;;;;;;;;;5058583;28;20057;-59
2023/12/24 11:06:38;;;;;;;25.20;6.05;;;;;;;;;;5036057;28;20052;-58
2023/12/24 11:09:29;;;;;;;21.73;5.00;;;;;;;;;;5060129;28;20549;-59
2023/12/24 11:11:56;;;;;;;24.70;5.20;;;;;;;;;;5052127;28;20049;-59
2023/12/24 11:14:38;;;;;;;22.92;5.53;;;;;;;;;;5062157;28;20795;-58
2023/12/24 11:17:08;;;;;;;17.73;5.13;;;;;;;;;;5060499;28;20569;-58
2023/12/24 11:19:35;;;;;;;25.98;4.68;;;;;;;;;;5057228;28;20588;-59
2023/12/24 11:22:07;;;;;;;17.70;3.90;;;;;;;;;;5062465;28;20057;-59
2023/12/24 11:24:34;;;;;;;20.63;4.18;;;;;;;;;;5061191;28;20056;-59
2023/12/24 11:27:17;;;;;;;13.23;3.42;;;;;;;;;;5058612;28;20100;-59
2023/12/24 11:29:52;;;;;;;16.10;2.85;;;;;;;;;;5062635;28;20055;-59
2023/12/24 11:32:26;;;;;;;14.00;3.15;;;;;;;;;;5062213;28;20477;-59
2023/12/24 11:34:55;;;;;;;9.90;2.53;;;;;;;;;;5060297;28;20057;-59
2023/12/24 11:37:29;;;;;;;7.47;2.47;;;;;;;;;;5060961;28;20486;-59
2023/12/24 11:40:00;;;;;;;10.13;2.35;;;;;;;;;;5061785;28;20179;-59
2023/12/24 11:42:43;;;;;;;12.15;2.03;;;;;;;;;;5061410;28;20097;-59
2023/12/24 11:45:27;;;;;;;10.77;2.30;;;;;;;;;;5062183;28;20088;-59
2023/12/24 11:47:53;;;;;;;8.00;2.28;;;;;;;;;;5061885;28;20084;-59
2023/12/24 11:50:21;;;;;;;14.50;2.80;;;;;;;;;;5061864;28;20055;-59
2023/12/24 11:52:49;;;;;;;12.73;2.55;;;;;;;;;;5061607;28;20063;-58
2023/12/24 11:55:16;;;;;;;11.73;3.13;;;;;;;;;;5062337;28;20057;-59
2023/12/24 11:57:43;;;;;;;11.93;2.63;;;;;;;;;;5060840;28;20052;-59
2023/12/24 12:00:14;;;;;;;10.18;3.38;;;;;;;;;;5061453;28;20560;-59
2023/12/24 12:02:52;;;;;;;11.55;2.78;;;;;;;;;;5061117;28;20136;-59
2023/12/24 12:05:19;;;;;;;12.00;2.78;;;;;;;;;;5062110;28;20221;-59
2023/12/24 12:07:45;;;;;;;10.45;3.17;;;;;;;;;;5060783;28;20724;-59
2023/12/24 12:10:12;;;;;;;11.35;2.95;;;;;;;;;;5061682;28;20085;-58
2023/12/24 12:12:38;;;;;;;16.50;4.18;;;;;;;;;;5061184;28;20746;-59
2023/12/24 12:15:04;;;;;;;11.65;3.60;;;;;;;;;;5060321;28;20581;-58
2023/12/24 12:17:31;;;;;;;16.58;4.30;;;;;;;;;;5060265;28;20531;-59
2023/12/24 12:19:58;;;;;;;10.50;3.55;;;;;;;;;;5061070;28;20092;-60
2023/12/24 12:22:24;;;;;;;13.05;3.95;;;;;;;;;;5062728;28;20056;-59
2023/12/24 12:24:50;;;;;;;20.33;5.05;;;;;;;;;;5064617;28;20053;-59
2023/12/24 12:27:17;;;;;;;18.73;3.95;;;;;;;;;;5065121;28;20492;-59
2023/12/24 12:29:44;;;;;;;23.48;4.57;;;;;;;;;;5065036;28;20063;-59
2023/12/24 12:32:10;;;;;;;25.90;5.00;;;;;;;;;;5064631;28;20526;-59
2023/12/24 12:34:38;;;;;;;22.08;4.97;;;;;;;;;;5063881;28;20523;-58
2023/12/24 12:37:04;;;;;;;17.83;4.20;;;;;;;;;;5064876;28;20127;-59
2023/12/24 12:39:31;;;;;;;19.63;5.28;;;;;;;;;;5064538;28;20061;-59
2023/12/24 12:41:57;;;;;;;21.58;5.20;;;;;;;;;;5064644;28;20057;-58
2023/12/24 12:44:24;;;;;;;30.23;6.43;;;;;;;;;;5050806;28;20053;-59
2023/12/24 12:46:50;;;;;;;18.00;4.57;;;;;;;;;;5061941;28;20111;-59
2023/12/24 12:49:17;;;;;;;22.33;4.95;;;;;;;;;;5050942;28;20056;-59
2023/12/24 12:51:43;;;;;;;22.95;4.40;;;;;;;;;;5062671;28;20060;-58
2023/12/24 12:54:14;;;;;;;19.40;4.60;;;;;;;;;;5062820;28;20099;-58
2023/12/24 12:56:41;;;;;;;15.52;4.95;;;;;;;;;;5063344;28;20559;-59
2023/12/24 12:59:08;;;;;;;20.15;4.57;;;;;;;;;;5061263;28;20462;-59
2023/12/24 13:01:38;;;;;;;20.10;4.80;;;;;;;;;;5062667;28;20049;-59
2023/12/24 13:04:04;;;;;;;21.45;4.55;;;;;;;;;;5064135;28;20084;-59
2023/12/24 13:06:31;;;;;;;19.92;5.03;;;;;;;;;;5062500;28;20144;-59
2023/12/24 13:09:15;;;;;;;18.67;4.75;;;;;;;;;;5063864;28;20392;-59
2023/12/24 13:11:41;;;;;;;15.88;3.33;;;;;;;;;;5063285;28;20124;-58
2023/12/24 13:14:08;;;;;;;12.05;3.10;;;;;;;;;;5056016;28;20059;-58
2023/12/24 13:16:35;;;;;;;18.73;3.35;;;;;;;;;;5044783;28;20058;-60
2023/12/24 13:19:14;;;;;;;19.23;3.85;;;;;;;;;;5044826;28;20579;-59
2023/12/24 13:21:41;;;;;;;13.20;2.72;;;;;;;;;;5063627;28;20053;-59
2023/12/24 13:24:07;;;;;;;15.85;3.20;;;;;;;;;;5063865;28;20049;-58
2023/12/24 13:26:34;;;;;;;16.80;3.60;;;;;;;;;;5062432;28;20085;-59
2023/12/24 13:29:01;;;;;;;10.35;3.17;;;;;;;;;;5063477;28;20092;-59
2023/12/24 13:31:27;;;;;;;13.00;3.08;;;;;;;;;;5054910;28;20049;-58
2023/12/24 13:33:54;;;;;;;13.57;3.50;;;;;;;;;;5043582;28;20053;-58
2023/12/24 13:36:21;;;;;;;12.07;2.63;;;;;;;;;;5063290;28;20049;-59
2023/12/24 13:38:47;;;;;;;13.68;3.53;;;;;;;;;;5059140;28;20212;-59
2023/12/24 13:41:14;;;;;;;17.40;3.47;;;;;;;;;;5044062;28;20076;-59
2023/12/24 13:43:40;;;;;;;10.02;3.03;;;;;;;;;;5043561;28;20461;-59
2023/12/24 13:46:07;;;;;;;17.05;3.75;;;;;;;;;;5051622;28;20132;-58
2023/12/24 13:48:34;;;;;;;10.60;2.92;;;;;;;;;;5063796;28;20048;-57
2023/12/24 13:51:01;;;;;;;18.48;4.35;;;;;;;;;;5064173;28;20507;-58
2023/12/24 13:53:27;;;;;;;12.20;3.28;;;;;;;;;;5063139;28;20053;-59
2023/12/24 13:55:59;;;;;;;14.38;3.38;;;;;;;;;;5055490;28;20885;-59
2023/12/24 13:58:27;;;;;;;16.55;3.03;;;;;;;;;;5051128;28;20053;-58
2023/12/24 14:00:53;;;;;;;16.33;2.88;;;;;;;;;;5056225;28;20073;-59
2023/12/24 14:03:21;;;;;;;17.73;3.72;;;;;;;;;;5043511;28;20718;-59
2023/12/24 14:05:49;;;;;;;11.60;2.95;;;;;;;;;;5052946;28;20065;-59
2023/12/24 14:08:15;;;;;;;21.52;3.95;;;;;;;;;;5062685;28;20049;-59
2023/12/24 14:10:42;;;;;;;20.02;3.75;;;;;;;;;;5062613;28;20060;-59
2023/12/24 14:13:08;;;;;;;19.23;3.35;;;;;;;;;;5062310;28;20660;-60
2023/12/24 14:15:34;;;;;;;16.08;3.75;;;;;;;;;;5064030;28;20835;-60
2023/12/24 14:18:02;;;;;;;17.58;4.28;;;;;;;;;;5062163;28;20142;-59
2023/12/24 14:20:28;;;;;;;16.85;4.43;;;;;;;;;;5063308;28;20060;-59
2023/12/24 14:22:56;;;;;;;18.90;3.78;;;;;;;;;;5058322;28;20045;-60
2023/12/24 14:25:23;;;;;;;16.13;3.45;;;;;;;;;;5059490;28;20056;-60
2023/12/24 14:27:49;;;;;;;12.70;2.95;;;;;;;;;;5063423;28;20052;-59
2023/12/24 14:30:16;;;;;;;11.00;2.75;;;;;;;;;;5049185;28;20532;-60
2023/12/24 14:32:42;;;;;;;17.10;3.95;;;;;;;;;;5061048;28;20147;-59
2023/12/24 14:35:09;;;;;;;8.45;2.10;;;;;;;;;;5063896;28;20088;-59